Time;durP1;ratioP1;P1;durP2;ratioP2;P2;SDS_P1;SDS_P2;PMS_P1;PMS_P2;Temp;Humidity;BMP_temperature;BMP_pressure;BME280_temperature;BME280_humidity;BME280_pressure;Samples;Min_cycle;Max_cycle;Signal;HPM_P1;HPM_P2
2023/02/14 00:00:31;;;;;;;65.88;32.50;;;-2.20;99.90;;;;;;5035595;28;20046;-88
2023/02/14 00:03:19;;;;;;;72.45;32.60;;;-2.20;99.90;;;;;;5036277;28;20343;-87
2023/02/14 00:06:10;;;;;;;70.22;33.65;;;-2.30;99.90;;;;;;5020506;28;20409;-88
2023/02/14 00:08:57;;;;;;;72.50;32.95;;;-2.30;99.90;;;;;;5034078;28;20494;-89
2023/02/14 00:11:44;;;;;;;82.10;33.10;;;-2.40;99.90;;;;;;5022195;28;20188;-89
2023/02/14 00:17:38;;;;;;;75.85;33.55;;;-2.30;99.90;;;;;;5039486;28;20050;-89
2023/02/14 00:20:28;;;;;;;67.50;32.70;;;-2.20;99.90;;;;;;5019539;28;20049;-90
2023/02/14 00:23:15;;;;;;;78.47;33.33;;;-2.30;99.90;;;;;;5033369;28;20045;-87
2023/02/14 00:26:03;;;;;;;81.10;36.10;;;-2.20;99.90;;;;;;5034079;28;20045;-88
2023/02/14 00:28:50;;;;;;;76.65;34.17;;;-2.30;99.90;;;;;;5016756;28;20049;-88
2023/02/14 00:31:41;;;;;;;75.57;34.92;;;-2.30;99.90;;;;;;5027198;28;20490;-90
2023/02/14 00:34:28;;;;;;;78.43;35.80;;;-2.30;99.90;;;;;;5040857;28;20061;-88
2023/02/14 00:37:15;;;;;;;82.35;36.25;;;-2.30;99.90;;;;;;5028780;28;20046;-89
2023/02/14 00:40:05;;;;;;;75.82;33.78;;;-2.40;99.90;;;;;;5022905;28;20049;-90
2023/02/14 00:42:52;;;;;;;83.57;33.80;;;-2.40;99.90;;;;;;5042685;28;20050;-89
2023/02/14 00:45:42;;;;;;;76.60;34.20;;;-2.50;99.90;;;;;;5022676;28;20324;-90
2023/02/14 00:48:29;;;;;;;77.22;34.63;;;-2.50;99.90;;;;;;5022158;28;20136;-89
2023/02/14 00:51:17;;;;;;;77.10;35.00;;;-2.40;99.90;;;;;;5014889;28;20140;-89
2023/02/14 00:54:05;;;;;;;80.28;35.05;;;-2.20;99.90;;;;;;5024434;28;20469;-89
2023/02/14 00:56:52;;;;;;;78.55;34.65;;;-2.10;99.90;;;;;;5037170;28;20057;-89
2023/02/14 00:59:39;;;;;;;77.95;34.17;;;-2.20;99.90;;;;;;5028156;28;20061;-88
2023/02/14 01:02:26;;;;;;;82.72;35.17;;;-2.20;99.90;;;;;;5031036;28;20052;-88
2023/02/14 01:05:14;;;;;;;76.88;35.47;;;-2.20;99.90;;;;;;5065857;28;20048;-87
2023/02/14 01:08:01;;;;;;;86.15;34.97;;;-2.40;99.90;;;;;;5046794;28;20099;-89
2023/02/14 01:10:49;;;;;;;81.32;35.33;;;-2.40;99.90;;;;;;5047498;28;20038;-90
2023/02/14 01:13:40;;;;;;;82.05;37.10;;;-2.40;99.90;;;;;;5027883;28;20046;-89
2023/02/14 01:16:30;;;;;;;84.65;35.42;;;-2.30;99.90;;;;;;5025168;28;20380;-90
2023/02/14 01:19:24;;;;;;;88.53;37.80;;;-2.20;99.90;;;;;;5036643;28;20049;-89
2023/02/14 01:22:15;;;;;;;77.82;34.75;;;-2.20;99.90;;;;;;5037981;28;20049;-90
2023/02/14 01:25:03;;;;;;;83.07;35.50;;;-2.20;99.90;;;;;;5038145;28;20529;-89
2023/02/14 01:27:51;;;;;;;78.57;35.58;;;-2.20;99.90;;;;;;5031987;28;20053;-89
2023/02/14 01:30:39;;;;;;;74.95;34.88;;;-2.20;99.90;;;;;;5051576;28;20056;-90
2023/02/14 01:33:29;;;;;;;78.30;34.15;;;-2.30;99.90;;;;;;5039197;28;20103;-89
2023/02/14 01:36:27;;;;;;;79.82;35.83;;;-2.30;99.90;;;;;;5037010;28;20053;-90
2023/02/14 01:39:14;;;;;;;80.50;34.03;;;-2.30;99.90;;;;;;5035945;28;20060;-88
2023/02/14 01:42:02;;;;;;;80.63;35.35;;;-2.30;99.90;;;;;;5019220;28;20109;-90
2023/02/14 01:44:57;;;;;;;80.80;35.03;;;-2.30;99.90;;;;;;5025772;28;20463;-89
2023/02/14 01:47:49;;;;;;;79.18;34.88;;;-2.40;99.90;;;;;;5040391;28;20192;-88
2023/02/14 01:50:43;;;;;;;80.88;35.58;;;-2.30;99.90;;;;;;5038663;28;20053;-90
2023/02/14 01:53:30;;;;;;;81.20;32.45;;;-2.40;99.90;;;;;;5023465;28;20478;-91
2023/02/14 01:56:27;;;;;;;80.97;33.97;;;-2.50;99.90;;;;;;5047242;28;20037;-90
2023/02/14 01:59:19;;;;;;;80.78;34.10;;;-2.50;99.90;;;;;;5044618;28;20041;-90
2023/02/14 02:02:07;;;;;;;78.32;32.90;;;-2.60;99.90;;;;;;5030221;28;20050;-89
2023/02/14 02:04:56;;;;;;;73.32;33.38;;;-2.70;99.90;;;;;;5051329;28;20055;-88
2023/02/14 02:07:52;;;;;;;75.45;34.70;;;-2.70;99.90;;;;;;5053960;28;20109;-88
2023/02/14 02:10:39;;;;;;;75.70;33.70;;;-2.70;99.90;;;;;;5042864;28;20138;-90
2023/02/14 02:13:26;;;;;;;76.05;33.67;;;-2.70;99.90;;;;;;5024433;28;20042;-89
2023/02/14 02:16:52;;;;;;;74.63;32.38;;;-2.70;99.90;;;;;;5027514;28;20474;-91
2023/02/14 02:20:00;;;;;;;73.40;31.48;;;-2.80;99.90;;;;;;5011147;28;20125;-92
2023/02/14 02:23:07;;;;;;;73.88;33.80;;;-2.90;99.90;;;;;;5030652;28;20085;-89
2023/02/14 02:26:21;;;;;;;65.82;30.55;;;-2.80;99.90;;;;;;5029049;28;20068;-91
2023/02/14 02:29:32;;;;;;;69.18;30.83;;;-2.90;99.90;;;;;;5028149;28;20067;-92
2023/02/14 02:32:19;;;;;;;70.88;30.90;;;-2.90;99.90;;;;;;5014096;28;20044;-89
2023/02/14 02:35:43;;;;;;;67.65;32.15;;;-2.90;99.90;;;;;;5033771;28;20061;-89
2023/02/14 02:38:44;;;;;;;72.78;31.13;;;-2.80;99.90;;;;;;5006814;28;20042;-89
2023/02/14 02:41:47;;;;;;;67.95;30.65;;;-2.90;99.90;;;;;;5024292;28;20049;-88
2023/02/14 02:44:52;;;;;;;77.25;33.08;;;-2.90;99.90;;;;;;5029087;28;20061;-89
2023/02/14 02:48:01;;;;;;;70.65;31.80;;;-2.90;99.90;;;;;;5024298;28;20037;-90
2023/02/14 02:54:12;;;;;;;74.43;32.20;;;-2.80;99.90;;;;;;5036210;28;20045;-87
2023/02/14 02:57:02;;;;;;;74.32;31.90;;;-2.90;99.90;;;;;;5024436;28;20128;-89
2023/02/14 02:59:51;;;;;;;66.97;31.45;;;-2.90;99.90;;;;;;5020519;28;20402;-90
2023/02/14 03:05:55;;;;;;;73.20;30.90;;;-2.90;99.90;;;;;;5035787;28;20053;-89
2023/02/14 03:08:45;;;;;;;65.60;29.52;;;-2.90;99.90;;;;;;5030836;28;20046;-88
2023/02/14 03:11:34;;;;;;;73.40;32.95;;;-2.90;99.90;;;;;;5050208;28;20048;-88
2023/02/14 03:14:31;;;;;;;73.13;31.23;;;-2.90;99.90;;;;;;5059729;28;20072;-88
2023/02/14 03:17:56;;;;;;;70.18;31.70;;;-2.80;99.90;;;;;;5036684;28;20083;-89
2023/02/14 03:21:06;;;;;;;78.63;34.05;;;-2.90;99.90;;;;;;5025375;28;20099;-89
2023/02/14 03:24:16;;;;;;;67.25;31.58;;;-2.90;99.90;;;;;;5026370;28;20068;-89
2023/02/14 03:27:20;;;;;;;73.22;31.40;;;-2.90;99.90;;;;;;5023591;28;20045;-89
2023/02/14 03:30:15;;;;;;;66.68;31.17;;;-2.90;99.90;;;;;;5036357;28;20119;-90
2023/02/14 03:33:18;;;;;;;72.88;33.20;;;-2.90;99.90;;;;;;5044229;28;20057;-87
2023/02/14 03:36:15;;;;;;;;;;;-3.00;99.90;;;;;;5051092;28;20050;-88
2023/02/14 03:39:28;;;;;;;65.60;32.60;;;-3.00;99.90;;;;;;5028285;28;19931;-88
2023/02/14 03:42:24;;;;;;;73.90;32.50;;;-3.10;99.90;;;;;;5011090;28;20068;-89
2023/02/14 03:45:17;;;;;;;73.97;32.85;;;-3.10;99.90;;;;;;5056584;28;20056;-89
2023/02/14 03:48:09;;;;;;;83.57;33.75;;;-3.00;99.90;;;;;;5039463;28;20113;-87
2023/02/14 03:50:58;;;;;;;68.93;32.08;;;-2.90;99.90;;;;;;5048523;28;20073;-88
2023/02/14 03:53:54;;;;;;;73.65;33.30;;;-2.90;99.90;;;;;;5051805;28;20052;-87
2023/02/14 03:56:46;;;;;;;70.43;33.05;;;-3.00;99.90;;;;;;5024884;28;20060;-86
2023/02/14 03:59:34;;;;;;;66.10;30.88;;;-3.00;99.90;;;;;;5026379;28;20108;-90
2023/02/14 04:02:36;;;;;;;64.65;29.90;;;-3.00;99.90;;;;;;5048783;28;20072;-87
2023/02/14 04:05:26;;;;;;;70.47;32.53;;;-3.10;99.90;;;;;;5038827;28;20049;-90
2023/02/14 04:08:24;;;;;;;68.57;30.58;;;-3.30;99.90;;;;;;5030140;28;20052;-89
2023/02/14 04:11:11;;;;;;;69.90;30.33;;;-3.40;99.90;;;;;;5035057;28;20117;-88
2023/02/14 04:13:58;;;;;;;72.10;32.28;;;-3.50;99.90;;;;;;5037720;28;20096;-89
2023/02/14 04:19:51;;;;;;;70.07;30.55;;;-3.50;99.90;;;;;;5048535;28;20046;-84
2023/02/14 04:22:39;;;;;;;64.88;30.60;;;-3.50;99.90;;;;;;5055898;28;20092;-85
2023/02/14 04:25:26;;;;;;;64.18;30.50;;;-3.40;99.90;;;;;;5056194;28;20036;-85
2023/02/14 04:28:16;;;;;;;64.53;28.85;;;-3.40;99.90;;;;;;5023682;28;20080;-85
2023/02/14 04:31:05;;;;;;;67.75;30.38;;;-3.30;99.90;;;;;;5037094;28;20064;-83
2023/02/14 04:33:55;;;;;;;68.20;31.67;;;-3.30;99.90;;;;;;5053479;28;20052;-87
2023/02/14 04:36:42;;;;;;;64.88;29.60;;;-3.40;99.90;;;;;;5037151;28;20108;-83
2023/02/14 04:39:30;;;;;;;76.05;31.80;;;-3.50;99.90;;;;;;5052311;28;20054;-84
2023/02/14 04:42:17;;;;;;;77.10;32.97;;;-3.40;99.90;;;;;;5047262;28;20054;-86
2023/02/14 04:45:05;;;;;;;68.35;31.83;;;-3.40;99.90;;;;;;5046637;28;20107;-89
2023/02/14 04:47:52;;;;;;;71.32;31.90;;;-3.40;99.90;;;;;;5040532;28;20042;-86
2023/02/14 04:50:39;;;;;;;66.20;30.15;;;-3.40;99.90;;;;;;5056952;28;20055;-88
2023/02/14 04:53:26;;;;;;;66.93;29.58;;;-3.50;99.90;;;;;;5057395;28;20044;-85
2023/02/14 04:56:16;;;;;;;67.03;29.73;;;-3.50;99.90;;;;;;5041478;28;20033;-84
2023/02/14 04:59:03;;;;;;;71.40;32.53;;;-3.50;99.90;;;;;;5047509;28;20124;-86
2023/02/14 05:01:53;;;;;;;65.63;29.77;;;-3.60;99.90;;;;;;5059832;28;20033;-85
2023/02/14 05:04:40;;;;;;;65.82;29.55;;;-3.60;99.90;;;;;;5045775;28;20044;-87
2023/02/14 05:07:28;;;;;;;65.60;30.27;;;-3.70;99.90;;;;;;5051798;28;20025;-86
2023/02/14 05:10:15;;;;;;;62.10;28.30;;;-3.60;99.90;;;;;;5063702;28;20042;-85
2023/02/14 05:13:03;;;;;;;77.45;31.17;;;-3.60;99.90;;;;;;5027758;28;20026;-90
2023/02/14 05:15:53;;;;;;;61.00;28.33;;;-3.60;99.90;;;;;;5054393;28;20052;-83
2023/02/14 05:18:40;;;;;;;60.70;28.17;;;-3.60;99.90;;;;;;5046604;28;20040;-84
2023/02/14 05:21:27;;;;;;;65.57;29.08;;;-3.60;99.90;;;;;;5040206;28;20065;-84
2023/02/14 05:24:15;;;;;;;60.83;28.63;;;-3.70;99.90;;;;;;5043067;28;20054;-84
2023/02/14 05:27:06;;;;;;;69.05;32.50;;;-3.60;99.90;;;;;;5047006;28;20025;-83
2023/02/14 05:29:53;;;;;;;76.68;32.17;;;-3.50;99.90;;;;;;5061135;28;20064;-84
2023/02/14 05:32:43;;;;;;;64.05;30.90;;;-3.40;99.90;;;;;;5039500;28;20029;-83
2023/02/14 05:35:37;;;;;;;59.92;30.27;;;-3.40;99.90;;;;;;5044512;28;20037;-88
2023/02/14 05:38:27;;;;;;;73.13;31.30;;;-3.30;99.90;;;;;;5058481;28;20041;-85
2023/02/14 05:41:16;;;;;;;82.72;34.13;;;-3.30;99.90;;;;;;5059369;28;20072;-87
2023/02/14 05:44:04;;;;;;;71.32;31.38;;;-3.30;99.90;;;;;;5050645;28;20022;-80
2023/02/14 05:46:51;;;;;;;75.45;32.97;;;-3.30;99.90;;;;;;5052807;28;20082;-84
2023/02/14 05:49:38;;;;;;;74.97;35.17;;;-3.40;99.90;;;;;;5056446;28;20029;-82
2023/02/14 05:52:31;;;;;;;71.53;32.50;;;-3.50;99.90;;;;;;5057770;28;20404;-89
2023/02/14 05:55:25;;;;;;;73.60;32.45;;;-3.60;99.90;;;;;;5059032;28;20061;-84
2023/02/14 08:34:28;;;;;;;96.88;45.08;;;0.70;99.90;;;;;;4868694;29;20127;-82
2023/02/14 10:53:16;;;;;;;21.67;14.40;;;16.60;99.90;;;;;;5014615;28;20069;-93
2023/02/14 10:56:28;;;;;;;19.88;14.75;;;16.60;99.90;;;;;;4994050;28;20046;-89
2023/02/14 11:03:08;;;;;;;19.85;14.35;;;18.00;99.90;;;;;;5005890;28;20084;-87
2023/02/14 11:05:55;;;;;;;19.20;14.20;;;18.60;99.90;;;;;;4994586;28;20091;-85
2023/02/14 11:08:43;;;;;;;18.33;13.63;;;18.80;95.30;;;;;;4997558;28;20046;-86
2023/02/14 11:11:34;;;;;;;19.63;14.48;;;18.50;91.40;;;;;;4983231;28;20061;-85
2023/02/14 11:14:21;;;;;;;21.50;14.68;;;18.70;78.40;;;;;;4996872;28;20038;-86
2023/02/14 11:17:31;;;;;;;19.95;14.70;;;17.90;64.70;;;;;;4992179;28;20038;-86
2023/02/14 11:20:23;;;;;;;21.10;14.02;;;17.00;59.40;;;;;;4989629;28;20046;-89
2023/02/14 11:23:18;;;;;;;;;;;17.50;62.00;;;;;;4992658;28;20049;-88
2023/02/14 11:26:19;;;;;;;18.50;12.65;;;18.70;57.70;;;;;;5012008;28;19921;-87
2023/02/14 11:29:20;;;;;;;20.35;13.75;;;19.50;55.50;;;;;;4992715;28;20076;-87
2023/02/14 11:32:33;;;;;;;18.02;13.35;;;19.00;45.30;;;;;;5014486;28;20042;-87
2023/02/14 11:35:29;;;;;;;16.50;12.40;;;19.50;39.70;;;;;;5017257;28;20050;-88
2023/02/14 11:38:38;;;;;;;17.75;13.27;;;19.40;33.90;;;;;;4996354;28;20173;-88
2023/02/14 11:41:25;;;;;;;19.02;13.00;;;18.40;28.60;;;;;;5014579;28;20100;-90
2023/02/14 11:44:36;;;;;;;18.70;13.00;;;19.40;31.00;;;;;;5012481;28;20060;-89
2023/02/14 11:47:33;;;;;;;16.25;11.50;;;20.50;31.20;;;;;;5012241;28;20046;-91
2023/02/14 11:50:24;;;;;;;15.95;12.75;;;20.60;25.50;;;;;;4998105;28;20041;-87
2023/02/14 11:53:25;;;;;;;15.80;10.77;;;20.70;22.60;;;;;;5024893;28;20367;-88
2023/02/14 11:56:16;;;;;;;16.17;11.63;;;21.60;21.00;;;;;;4993098;28;20100;-87
2023/02/14 11:59:14;;;;;;;12.52;10.50;;;21.20;13.30;;;;;;5005981;28;20046;-90
2023/02/14 15:09:34;;;;;;;23.08;12.00;;;18.10;1.00;;;;;;5006904;28;20056;-83
2023/02/14 15:16:10;;;;;;;20.70;12.40;;;17.80;1.00;;;;;;5007036;28;20098;-83
2023/02/14 15:19:59;;;;;;;20.73;13.43;;;17.70;1.00;;;;;;4957096;28;20055;-83
2023/02/14 15:23:07;;;;;;;23.08;12.82;;;17.00;1.00;;;;;;4939119;28;20416;-83
2023/02/14 15:27:25;;;;;;;17.88;12.35;;;16.80;1.00;;;;;;4936561;28;20053;-82
2023/02/14 15:39:24;;;;;;;19.40;12.38;;;16.80;1.00;;;;;;4833984;29;20054;-84
2023/02/14 15:55:11;;;;;;;23.55;14.80;;;15.50;1.00;;;;;;4741345;30;20360;-83
2023/02/14 16:02:39;;;;;;;25.40;14.13;;;14.20;1.00;;;;;;4756848;30;20043;-81
2023/02/14 16:06:09;;;;;;;25.08;15.00;;;14.00;1.00;;;;;;4757551;29;20048;-80
2023/02/14 16:13:58;;;;;;;21.38;14.27;;;13.30;1.00;;;;;;4903985;29;20473;-85
2023/02/14 16:17:05;;;;;;;29.02;15.43;;;12.40;1.00;;;;;;4976036;28;20124;-81
2023/02/14 16:19:53;;;;;;;31.58;18.27;;;11.80;1.00;;;;;;4994035;28;20356;-83
2023/02/14 16:22:40;;;;;;;26.75;17.05;;;11.00;1.00;;;;;;5012945;28;20140;-84
2023/02/14 16:25:28;;;;;;;29.30;18.77;;;10.30;1.00;;;;;;5009848;28;20039;-83
2023/02/14 16:28:15;;;;;;;29.95;19.02;;;9.80;1.00;;;;;;4994453;28;20046;-84
2023/02/14 16:31:12;;;;;;;32.72;18.83;;;9.30;1.00;;;;;;5015122;28;20074;-87
2023/02/14 16:34:00;;;;;;;32.03;18.15;;;8.90;1.00;;;;;;4996665;28;20042;-86
2023/02/14 16:36:52;;;;;;;30.92;18.63;;;8.60;1.00;;;;;;5012222;28;20368;-84
2023/02/14 16:39:39;;;;;;;36.53;21.73;;;8.40;6.00;;;;;;4998246;28;20057;-86
2023/02/14 16:42:27;;;;;;;36.58;21.80;;;8.10;15.10;;;;;;5023362;28;20042;-85
2023/02/14 16:45:20;;;;;;;41.70;20.67;;;7.90;22.70;;;;;;5010256;28;20053;-84
2023/02/14 16:48:10;;;;;;;59.80;31.35;;;7.70;34.90;;;;;;5028991;28;20065;-83
2023/02/14 16:51:00;;;;;;;50.53;28.70;;;7.40;51.10;;;;;;5022947;28;20056;-84
2023/02/14 16:53:57;;;;;;;50.50;25.02;;;7.30;68.70;;;;;;5022407;28;20139;-82
2023/02/14 16:56:52;;;;;;;38.78;22.83;;;7.00;90.40;;;;;;5015007;28;20348;-82
2023/02/14 16:59:41;;;;;;;42.20;24.25;;;6.70;99.90;;;;;;5002073;28;20141;-83
2023/02/14 17:02:28;;;;;;;43.88;23.70;;;6.40;99.90;;;;;;5009544;28;20142;-82
2023/02/14 17:05:20;;;;;;;42.90;24.08;;;6.20;99.90;;;;;;5017584;28;20042;-83
2023/02/14 17:08:14;;;;;;;42.25;23.40;;;6.00;99.90;;;;;;5008860;28;20053;-82
2023/02/14 17:11:03;;;;;;;41.47;22.38;;;5.90;99.90;;;;;;5003340;28;20192;-81
2023/02/14 17:13:54;;;;;;;43.20;24.17;;;5.80;99.90;;;;;;5013944;28;20054;-82
2023/02/14 17:16:47;;;;;;;43.78;24.42;;;5.90;99.90;;;;;;5011428;28;20053;-81
2023/02/14 17:19:39;;;;;;;41.75;22.30;;;5.80;99.90;;;;;;4995911;28;20041;-82
2023/02/14 17:22:29;;;;;;;43.42;22.30;;;5.70;99.90;;;;;;4985456;28;20038;-81
2023/02/14 17:25:17;;;;;;;49.42;23.92;;;5.60;99.90;;;;;;4999609;28;20054;-83
2023/02/14 17:28:18;;;;;;;40.28;22.23;;;5.50;99.90;;;;;;5008386;28;20049;-80
2023/02/14 17:31:08;;;;;;;38.60;21.65;;;5.50;99.90;;;;;;5012637;28;20050;-82
2023/02/14 17:33:55;;;;;;;43.88;22.52;;;5.30;99.90;;;;;;5017276;28;20060;-80
2023/02/14 17:36:43;;;;;;;36.78;21.30;;;5.10;99.90;;;;;;5012075;28;20363;-82
2023/02/14 17:39:30;;;;;;;46.13;23.52;;;4.90;99.90;;;;;;4992669;28;20053;-81
2023/02/14 17:42:20;;;;;;;40.20;22.35;;;4.70;99.90;;;;;;5007367;28;20050;-80
2023/02/14 17:45:11;;;;;;;39.45;22.85;;;4.60;99.90;;;;;;5002251;28;20042;-82
2023/02/14 17:48:01;;;;;;;48.05;23.30;;;4.50;99.90;;;;;;5015503;28;20061;-81
2023/02/14 17:50:51;;;;;;;47.08;24.92;;;4.40;99.90;;;;;;5013848;28;20072;-81
2023/02/14 17:53:40;;;;;;;42.00;23.02;;;4.30;99.90;;;;;;5014912;28;20164;-81
2023/02/14 17:56:28;;;;;;;51.40;25.10;;;4.20;1.00;;;;;;4998436;28;20363;-82
2023/02/14 17:59:18;;;;;;;47.55;24.85;;;4.30;1.00;;;;;;5017072;28;20049;-81
2023/02/14 18:02:06;;;;;;;46.15;26.42;;;4.20;1.00;;;;;;5024933;28;20054;-82
2023/02/14 18:04:54;;;;;;;47.28;25.42;;;4.10;1.00;;;;;;5013917;28;20058;-84
2023/02/14 18:07:42;;;;;;;43.15;23.60;;;4.00;1.00;;;;;;5013266;28;20506;-83
2023/02/14 18:10:30;;;;;;;42.38;23.58;;;3.90;1.00;;;;;;4996365;28;20045;-83
2023/02/14 18:13:17;;;;;;;47.10;24.95;;;3.90;1.00;;;;;;5001203;28;20046;-83
2023/02/14 18:16:08;;;;;;;50.88;25.90;;;3.90;1.00;;;;;;5016822;28;20057;-83
2023/02/14 18:18:56;;;;;;;55.72;30.42;;;3.80;1.00;;;;;;5006775;28;20046;-83
2023/02/14 18:21:56;;;;;;;55.50;30.40;;;3.50;1.00;;;;;;5006146;28;20073;-82
2023/02/14 18:24:47;;;;;;;65.65;33.17;;;3.40;41.90;;;;;;5006577;28;20447;-85
2023/02/14 18:27:34;;;;;;;66.70;33.65;;;3.40;99.90;;;;;;5006143;28;20038;-85
2023/02/14 18:30:46;;;;;;;64.43;34.50;;;3.40;99.90;;;;;;4993668;28;20042;-83
2023/02/14 18:33:35;;;;;;;94.65;45.45;;;3.30;99.90;;;;;;4995223;28;20128;-83
2023/02/14 18:36:25;;;;;;;82.97;42.97;;;3.20;99.90;;;;;;4996855;28;20042;-83
2023/02/14 18:39:16;;;;;;;78.25;42.50;;;3.10;99.90;;;;;;5015817;28;20129;-81
2023/02/14 18:42:05;;;;;;;68.38;37.65;;;3.10;1.00;;;;;;5000433;28;20127;-84
2023/02/14 18:44:53;;;;;;;68.38;34.90;;;2.90;1.00;;;;;;4999494;28;20037;-82
2023/02/14 18:47:42;;;;;;;67.47;35.85;;;2.80;1.00;;;;;;5001499;28;20056;-83
2023/02/14 18:50:32;;;;;;;69.38;33.92;;;2.70;99.90;;;;;;4997889;28;20076;-83
2023/02/14 18:53:19;;;;;;;81.28;38.28;;;2.70;99.90;;;;;;5017993;28;20057;-84
2023/02/14 18:56:11;;;;;;;100.90;47.53;;;2.70;99.90;;;;;;5017028;28;20054;-84
2023/02/14 18:59:01;;;;;;;89.70;46.37;;;2.70;1.00;;;;;;5012738;28;20042;-83
2023/02/14 19:01:50;;;;;;;77.97;40.70;;;2.70;28.40;;;;;;5010696;28;20420;-79
2023/02/14 19:04:40;;;;;;;83.07;42.38;;;2.60;99.90;;;;;;5017224;28;20152;-81
2023/02/14 19:07:27;;;;;;;79.32;40.35;;;2.70;99.90;;;;;;5017625;28;20045;-83
2023/02/14 19:10:20;;;;;;;92.30;40.83;;;2.60;99.90;;;;;;5016616;28;20049;-83
2023/02/14 19:13:30;;;;;;;76.72;41.70;;;2.40;99.90;;;;;;4946539;29;20047;-82
2023/02/14 19:16:23;;;;;;;77.67;43.70;;;2.40;1.00;;;;;;4998819;28;20471;-82
2023/02/14 19:19:22;;;;;;;87.80;45.13;;;2.30;94.00;;;;;;4998822;28;20626;-82
2023/02/14 19:22:12;;;;;;;87.63;44.38;;;2.30;99.90;;;;;;5012479;28;20451;-82
2023/02/14 19:25:00;;;;;;;86.55;43.50;;;2.30;1.00;;;;;;5001554;28;20085;-83
2023/02/14 19:27:49;;;;;;;87.00;45.95;;;2.10;1.00;;;;;;5011181;28;20046;-83
2023/02/14 19:30:37;;;;;;;93.18;44.33;;;2.00;99.90;;;;;;5006830;28;20165;-83
2023/02/14 19:33:25;;;;;;;86.20;46.15;;;1.80;1.00;;;;;;4996236;28;20045;-84
2023/02/14 19:36:15;;;;;;;91.13;48.45;;;1.90;99.90;;;;;;5009615;28;20313;-82
2023/02/14 19:39:03;;;;;;;98.13;47.78;;;1.80;1.00;;;;;;4992818;28;20040;-83
2023/02/14 19:41:53;;;;;;;84.15;44.10;;;1.80;16.40;;;;;;4999327;28;20116;-82
2023/02/14 19:44:44;;;;;;;88.32;48.30;;;1.70;99.90;;;;;;5017540;28;20392;-84
2023/02/14 19:47:32;;;;;;;97.32;47.50;;;1.60;99.90;;;;;;4998624;28;20050;-85
2023/02/14 19:50:33;;;;;;;97.30;47.58;;;1.60;1.00;;;;;;5003262;28;20478;-87
2023/02/14 19:53:23;;;;;;;92.05;45.20;;;1.50;1.00;;;;;;4998231;28;20050;-87
2023/02/14 19:56:16;;;;;;;97.07;48.13;;;1.50;1.00;;;;;;5011665;28;20042;-86
2023/02/14 19:59:10;;;;;;;;;;;1.40;99.90;;;;;;5012364;28;20125;-85
2023/02/14 20:01:59;;;;;;;92.18;45.30;;;1.30;99.90;;;;;;5003558;28;19921;-83
2023/02/14 20:04:47;;;;;;;97.60;47.85;;;1.10;99.90;;;;;;5017761;28;20052;-83
2023/02/14 20:07:34;;;;;;;96.68;48.42;;;1.10;99.90;;;;;;5018164;28;20049;-84
2023/02/14 20:10:28;;;;;;;93.38;48.72;;;1.00;99.90;;;;;;5005252;28;20073;-83
2023/02/14 20:13:16;;;;;;;102.65;49.25;;;1.00;99.90;;;;;;5007618;28;20076;-83
2023/02/14 20:16:04;;;;;;;91.05;47.05;;;0.90;1.00;;;;;;5006492;28;20045;-83
2023/02/14 20:18:52;;;;;;;98.15;46.45;;;0.90;1.00;;;;;;5013049;28;20108;-84
2023/02/14 20:21:42;;;;;;;96.68;47.42;;;0.80;15.50;;;;;;5017056;28;20098;-86
2023/02/14 20:24:31;;;;;;;103.05;51.58;;;0.90;99.20;;;;;;5027458;28;20080;-84
2023/02/14 20:27:18;;;;;;;110.32;54.67;;;1.10;99.90;;;;;;5028854;28;20049;-83
2023/02/14 20:30:10;;;;;;;121.95;57.97;;;1.20;99.90;;;;;;5000994;28;20177;-84
2023/02/14 20:32:57;;;;;;;115.78;55.17;;;1.20;99.90;;;;;;5015536;28;20068;-83
2023/02/14 20:35:45;;;;;;;112.95;53.10;;;1.30;99.90;;;;;;5018360;28;20048;-84
2023/02/14 20:38:35;;;;;;;113.90;55.30;;;1.30;99.90;;;;;;4981687;28;20043;-84
2023/02/14 20:41:23;;;;;;;119.93;56.08;;;1.40;99.90;;;;;;5005437;28;20042;-82
2023/02/14 20:44:18;;;;;;;116.07;54.20;;;1.50;99.90;;;;;;5010031;28;20467;-82
2023/02/14 20:47:06;;;;;;;122.75;57.20;;;1.60;99.90;;;;;;5018335;28;20088;-82
2023/02/14 20:49:54;;;;;;;111.60;53.30;;;1.50;99.90;;;;;;5015317;28;20077;-80
2023/02/14 20:52:41;;;;;;;98.78;50.60;;;1.40;99.90;;;;;;5005327;28;20390;-81
2023/02/14 20:55:30;;;;;;;99.30;49.90;;;1.50;99.90;;;;;;5000456;28;20136;-82
2023/02/14 20:58:21;;;;;;;102.88;49.38;;;1.60;99.90;;;;;;5000803;28;20110;-81
2023/02/14 21:01:14;;;;;;;101.40;49.05;;;1.50;99.90;;;;;;5010773;28;20058;-83
2023/02/14 21:04:02;;;;;;;94.10;48.70;;;1.60;99.90;;;;;;5014234;28;20057;-83
2023/02/14 21:06:49;;;;;;;95.50;48.42;;;1.60;99.90;;;;;;5010239;28;20161;-84
2023/02/14 21:09:39;;;;;;;92.18;48.08;;;1.60;99.90;;;;;;4992454;28;20089;-82
2023/02/14 21:12:27;;;;;;;92.85;47.85;;;1.40;99.90;;;;;;5015407;28;20064;-85
2023/02/14 21:15:14;;;;;;;94.20;46.35;;;1.40;99.90;;;;;;5012446;28;20060;-84
2023/02/14 21:18:03;;;;;;;101.10;47.60;;;1.40;99.90;;;;;;5012213;28;20046;-86
2023/02/14 21:21:04;;;;;;;97.45;46.80;;;1.30;99.90;;;;;;5011252;28;20128;-84
2023/02/14 21:23:52;;;;;;;99.85;50.55;;;1.20;99.90;;;;;;4998544;28;20603;-84
2023/02/14 21:26:41;;;;;;;102.25;49.70;;;1.30;99.90;;;;;;5021257;28;20072;-84
2023/02/14 21:29:29;;;;;;;96.75;46.88;;;1.30;99.90;;;;;;4988091;28;20049;-84
2023/02/14 21:32:16;;;;;;;102.32;50.13;;;1.30;99.90;;;;;;5015112;28;20058;-85
2023/02/14 21:35:09;;;;;;;99.13;48.45;;;1.30;99.90;;;;;;5015980;28;20048;-84
2023/02/14 21:37:57;;;;;;;102.20;46.97;;;1.30;99.90;;;;;;5016793;28;20049;-84
2023/02/14 21:40:44;;;;;;;95.82;46.50;;;1.20;99.90;;;;;;5016113;28;20379;-84
2023/02/14 21:43:46;;;;;;;101.43;48.05;;;1.30;99.90;;;;;;5011271;28;20042;-83
2023/02/14 21:46:37;;;;;;;101.10;49.90;;;1.50;99.90;;;;;;4999600;28;20124;-83
2023/02/14 21:52:30;;;;;;;103.20;45.42;;;1.50;99.90;;;;;;5003359;28;20061;-83
2023/02/14 21:55:17;;;;;;;95.80;46.20;;;1.30;99.90;;;;;;5001098;28;20050;-83
2023/02/14 21:58:05;;;;;;;92.90;45.35;;;1.20;99.90;;;;;;5008941;28;20052;-84
2023/02/14 22:00:54;;;;;;;97.78;45.53;;;1.10;99.90;;;;;;5010501;28;20042;-84
2023/02/14 22:03:42;;;;;;;93.72;45.03;;;1.00;99.90;;;;;;5002482;28;20053;-85
2023/02/14 22:06:29;;;;;;;98.43;49.38;;;1.00;99.90;;;;;;5007638;28;20062;-83
2023/02/14 22:09:17;;;;;;;111.45;48.95;;;1.00;99.90;;;;;;5014447;28;20054;-86
2023/02/14 22:12:05;;;;;;;110.30;52.45;;;1.00;99.90;;;;;;5001973;28;20042;-84
2023/02/14 22:14:52;;;;;;;119.28;55.97;;;1.00;99.90;;;;;;5004465;28;20064;-84
2023/02/14 22:17:42;;;;;;;119.68;53.05;;;0.90;99.90;;;;;;5026604;28;20048;-84
2023/02/14 22:20:29;;;;;;;100.60;47.83;;;0.70;99.90;;;;;;5011543;28;20042;-84
2023/02/14 22:23:16;;;;;;;101.00;47.08;;;0.70;99.90;;;;;;5015765;28;20388;-84
2023/02/14 22:26:21;;;;;;;99.72;45.22;;;0.60;99.90;;;;;;5012930;28;20042;-84
2023/02/14 22:29:14;;;;;;;106.80;47.95;;;0.60;99.90;;;;;;5007846;28;20057;-81
2023/02/14 22:32:03;;;;;;;107.95;48.90;;;0.60;99.90;;;;;;5011096;28;20100;-83
2023/02/14 22:34:53;;;;;;;106.13;49.35;;;0.70;99.90;;;;;;5013643;28;20355;-82
2023/02/14 22:37:41;;;;;;;112.32;50.83;;;0.50;99.90;;;;;;5009559;28;20049;-82
2023/02/14 22:40:28;;;;;;;118.90;53.33;;;0.50;99.90;;;;;;5014690;28;20250;-83
2023/02/14 22:43:15;;;;;;;131.60;53.55;;;0.40;99.90;;;;;;5015162;28;20145;-84
2023/02/14 22:46:08;;;;;;;125.75;55.28;;;0.40;99.90;;;;;;5016924;28;20056;-85
2023/02/14 22:48:56;;;;;;;114.30;52.88;;;0.40;99.90;;;;;;4986391;28;20061;-83
2023/02/14 22:51:43;;;;;;;117.70;51.47;;;0.40;99.90;;;;;;5014600;28;20093;-82
2023/02/14 22:54:31;;;;;;;111.80;51.65;;;0.30;99.90;;;;;;5015855;28;20049;-83
2023/02/14 22:57:18;;;;;;;117.55;52.80;;;0.30;99.90;;;;;;4992271;28;20041;-85
2023/02/14 23:00:10;;;;;;;117.90;50.83;;;0.20;99.90;;;;;;5018350;28;20037;-84
2023/02/14 23:02:58;;;;;;;106.25;48.25;;;0.30;99.90;;;;;;5017879;28;20151;-83
2023/02/14 23:05:45;;;;;;;101.38;47.55;;;0.20;99.90;;;;;;5005509;28;20502;-83
2023/02/14 23:08:32;;;;;;;103.45;45.83;;;0.20;99.90;;;;;;5005173;28;20046;-83
2023/02/14 23:11:22;;;;;;;104.05;45.95;;;0.10;99.90;;;;;;5025101;28;20081;-83
2023/02/14 23:23:34;;;;;;;112.13;46.60;;;-0.10;99.90;;;;;;5004893;28;20125;-83
2023/02/14 23:26:21;;;;;;;114.65;50.55;;;-0.10;99.90;;;;;;5003902;28;20381;-84
2023/02/14 23:29:08;;;;;;;107.50;47.67;;;-0.20;99.90;;;;;;5008118;28;20053;-84
2023/02/14 23:31:56;;;;;;;121.35;52.53;;;-0.20;99.90;;;;;;5008354;28;20616;-82
2023/02/14 23:34:44;;;;;;;111.72;49.53;;;-0.20;99.90;;;;;;5002059;28;20041;-84
2023/02/14 23:37:32;;;;;;;110.05;48.85;;;-0.30;99.90;;;;;;4996818;28;20100;-84
2023/02/14 23:40:19;;;;;;;122.30;49.85;;;-0.30;99.90;;;;;;5014057;28;20046;-82
2023/02/14 23:43:07;;;;;;;131.70;55.63;;;-0.40;99.90;;;;;;5000022;28;20243;-83